Nazca, Peru
Current Conditions -  °F | °C
As of 9:00 AM on Saturday 22 Nov 2014 (Local Time) from SPSO Reporting Station
Broken Clouds Broken Clouds  
Wind Chill: 68°   Ceiling: 2400
Heat Index: 68°   Visibility: 6mi
Dew Point: 61°   Wind: 9mph
Humidity: 78%   Direction: 230°SW
Pressure: 29.97"   Gusts: NA
Location:  14.83°S, 74.94°W
Report Text: SPSO 221400Z 23008KT 9999 FEW020 BKN024 20/16 Q1015 RMKBIRD HAZARD RWY 22/04 PP000
Loading
Personal Weather Stations






























Interactive Weather Map New forecast layout! Learn more

10-Day Weather Forecast

Advertisements
Track Severe Weather on mobile